Fangxian, China
Current Conditions -  °F | °C
As of 8:00 PM on Thursday 29 Jan 2015 (Local Time) from ZLXY Reporting Station
Clear Clear  
Wind Chill: 28°   Ceiling: Unl
Heat Index: 28°   Visibility: 4mi
Dew Point: 21°   Wind: 2mph
Humidity: 74%   Direction: 240°WSW
Pressure: 30.45"   Gusts: NA
Location:  32.03°N, 110.77°E
Report Text: ZLXY 291200Z 24001MPS 7000 NSC M02/M06 Q1031 NOSIG
Loading
Personal Weather Stations






























Interactive Weather Map New forecast layout! Learn more

10-Day Weather Forecast

Advertisements
Track Severe Weather on mobile